sensor_id;sensor_type;location;lat;lon;timestamp;P1;durP1;ratioP1;P2;durP2;ratioP2
51034;SDS011;37062;52.546;13.230;2024-02-21T00:02:09;17.02;;;6.25;;
51034;SDS011;37062;52.546;13.230;2024-02-21T00:04:37;21.70;;;7.13;;
51034;SDS011;37062;52.546;13.230;2024-02-21T00:07:06;17.65;;;6.00;;
51034;SDS011;37062;52.546;13.230;2024-02-21T00:09:36;20.70;;;7.18;;
51034;SDS011;37062;52.546;13.230;2024-02-21T00:12:04;19.23;;;6.07;;
51034;SDS011;37062;52.546;13.230;2024-02-21T00:14:33;20.33;;;6.95;;
51034;SDS011;37062;52.546;13.230;2024-02-21T00:17:01;14.70;;;6.53;;
51034;SDS011;37062;52.546;13.230;2024-02-21T00:19:30;18.95;;;6.25;;
51034;SDS011;37062;52.546;13.230;2024-02-21T00:21:58;21.23;;;7.18;;
51034;SDS011;37062;52.546;13.230;2024-02-21T00:24:26;14.18;;;5.47;;
51034;SDS011;37062;52.546;13.230;2024-02-21T00:26:56;15.23;;;5.55;;
51034;SDS011;37062;52.546;13.230;2024-02-21T00:29:25;17.50;;;5.97;;
51034;SDS011;37062;52.546;13.230;2024-02-21T00:31:53;18.95;;;6.20;;
51034;SDS011;37062;52.546;13.230;2024-02-21T00:34:22;17.38;;;5.55;;
51034;SDS011;37062;52.546;13.230;2024-02-21T00:36:51;19.13;;;6.47;;
51034;SDS011;37062;52.546;13.230;2024-02-21T00:39:19;16.75;;;7.38;;
51034;SDS011;37062;52.546;13.230;2024-02-21T00:41:49;18.40;;;5.75;;
51034;SDS011;37062;52.546;13.230;2024-02-21T00:44:18;15.52;;;5.68;;
51034;SDS011;37062;52.546;13.230;2024-02-21T00:46:47;18.77;;;5.07;;
51034;SDS011;37062;52.546;13.230;2024-02-21T00:49:15;17.42;;;5.65;;
51034;SDS011;37062;52.546;13.230;2024-02-21T00:51:44;16.13;;;5.78;;
51034;SDS011;37062;52.546;13.230;2024-02-21T00:54:12;17.65;;;6.50;;
51034;SDS011;37062;52.546;13.230;2024-02-21T00:56:40;18.20;;;6.25;;
51034;SDS011;37062;52.546;13.230;2024-02-21T00:59:08;17.30;;;5.70;;
51034;SDS011;37062;52.546;13.230;2024-02-21T01:01:38;16.98;;;5.47;;
51034;SDS011;37062;52.546;13.230;2024-02-21T01:04:09;14.38;;;5.68;;
51034;SDS011;37062;52.546;13.230;2024-02-21T01:06:38;15.00;;;5.65;;
51034;SDS011;37062;52.546;13.230;2024-02-21T01:09:09;16.48;;;6.00;;
51034;SDS011;37062;52.546;13.230;2024-02-21T01:11:38;16.80;;;5.03;;
51034;SDS011;37062;52.546;13.230;2024-02-21T01:14:06;14.52;;;5.25;;
51034;SDS011;37062;52.546;13.230;2024-02-21T01:16:34;16.65;;;6.45;;
51034;SDS011;37062;52.546;13.230;2024-02-21T01:19:04;18.95;;;8.93;;
51034;SDS011;37062;52.546;13.230;2024-02-21T01:21:32;19.60;;;7.45;;
51034;SDS011;37062;52.546;13.230;2024-02-21T01:24:02;20.08;;;6.97;;
51034;SDS011;37062;52.546;13.230;2024-02-21T01:26:31;16.88;;;7.88;;
51034;SDS011;37062;52.546;13.230;2024-02-21T01:29:00;15.13;;;6.32;;
51034;SDS011;37062;52.546;13.230;2024-02-21T01:31:28;16.13;;;5.78;;
51034;SDS011;37062;52.546;13.230;2024-02-21T01:33:57;20.63;;;7.10;;
51034;SDS011;37062;52.546;13.230;2024-02-21T01:36:27;19.17;;;6.55;;
51034;SDS011;37062;52.546;13.230;2024-02-21T01:38:55;16.88;;;5.63;;
51034;SDS011;37062;52.546;13.230;2024-02-21T01:41:23;22.35;;;7.97;;
51034;SDS011;37062;52.546;13.230;2024-02-21T01:43:52;15.27;;;6.50;;
51034;SDS011;37062;52.546;13.230;2024-02-21T01:46:20;17.45;;;7.10;;
51034;SDS011;37062;52.546;13.230;2024-02-21T01:48:47;20.83;;;7.03;;
51034;SDS011;37062;52.546;13.230;2024-02-21T01:51:16;19.63;;;7.63;;
51034;SDS011;37062;52.546;13.230;2024-02-21T01:53:45;14.80;;;6.60;;
51034;SDS011;37062;52.546;13.230;2024-02-21T01:56:14;18.35;;;6.88;;
51034;SDS011;37062;52.546;13.230;2024-02-21T01:58:42;14.38;;;6.25;;
51034;SDS011;37062;52.546;13.230;2024-02-21T02:01:11;22.35;;;7.28;;
51034;SDS011;37062;52.546;13.230;2024-02-21T02:03:42;20.67;;;6.82;;
51034;SDS011;37062;52.546;13.230;2024-02-21T02:06:11;18.08;;;8.40;;
51034;SDS011;37062;52.546;13.230;2024-02-21T02:08:41;16.42;;;7.10;;
51034;SDS011;37062;52.546;13.230;2024-02-21T02:11:12;18.65;;;6.10;;
51034;SDS011;37062;52.546;13.230;2024-02-21T02:13:41;17.15;;;7.20;;
51034;SDS011;37062;52.546;13.230;2024-02-21T02:16:10;16.90;;;6.35;;
51034;SDS011;37062;52.546;13.230;2024-02-21T02:18:38;15.18;;;6.97;;
51034;SDS011;37062;52.546;13.230;2024-02-21T02:21:08;20.60;;;6.85;;
51034;SDS011;37062;52.546;13.230;2024-02-21T02:23:45;21.45;;;6.38;;
51034;SDS011;37062;52.546;13.230;2024-02-21T02:26:14;14.52;;;5.63;;
51034;SDS011;37062;52.546;13.230;2024-02-21T02:28:42;19.13;;;6.95;;
51034;SDS011;37062;52.546;13.230;2024-02-21T02:31:10;19.13;;;7.53;;
51034;SDS011;37062;52.546;13.230;2024-02-21T02:33:39;14.43;;;6.30;;
51034;SDS011;37062;52.546;13.230;2024-02-21T02:36:07;15.20;;;5.57;;
51034;SDS011;37062;52.546;13.230;2024-02-21T02:38:35;13.77;;;5.38;;
51034;SDS011;37062;52.546;13.230;2024-02-21T02:41:06;17.70;;;6.30;;
51034;SDS011;37062;52.546;13.230;2024-02-21T02:43:34;16.88;;;5.68;;
51034;SDS011;37062;52.546;13.230;2024-02-21T02:46:04;15.75;;;4.95;;
51034;SDS011;37062;52.546;13.230;2024-02-21T02:48:32;14.00;;;5.47;;
51034;SDS011;37062;52.546;13.230;2024-02-21T02:51:01;13.63;;;5.70;;
51034;SDS011;37062;52.546;13.230;2024-02-21T02:53:29;17.13;;;5.75;;
51034;SDS011;37062;52.546;13.230;2024-02-21T02:55:57;16.67;;;5.85;;
51034;SDS011;37062;52.546;13.230;2024-02-21T02:58:27;17.92;;;6.03;;
51034;SDS011;37062;52.546;13.230;2024-02-21T03:00:55;17.23;;;7.57;;
51034;SDS011;37062;52.546;13.230;2024-02-21T03:03:24;17.48;;;6.80;;
51034;SDS011;37062;52.546;13.230;2024-02-21T03:05:52;17.63;;;6.03;;
51034;SDS011;37062;52.546;13.230;2024-02-21T03:08:20;16.38;;;5.90;;
51034;SDS011;37062;52.546;13.230;2024-02-21T03:10:49;19.00;;;7.40;;
51034;SDS011;37062;52.546;13.230;2024-02-21T03:13:17;18.05;;;5.90;;
51034;SDS011;37062;52.546;13.230;2024-02-21T03:15:47;24.75;;;8.77;;
51034;SDS011;37062;52.546;13.230;2024-02-21T03:18:15;17.90;;;7.18;;
51034;SDS011;37062;52.546;13.230;2024-02-21T03:20:44;23.05;;;8.93;;
51034;SDS011;37062;52.546;13.230;2024-02-21T03:23:12;16.55;;;6.82;;
51034;SDS011;37062;52.546;13.230;2024-02-21T03:25:40;16.17;;;7.18;;
51034;SDS011;37062;52.546;13.230;2024-02-21T03:28:09;18.95;;;6.80;;
51034;SDS011;37062;52.546;13.230;2024-02-21T03:30:37;18.52;;;7.80;;
51034;SDS011;37062;52.546;13.230;2024-02-21T03:33:07;18.27;;;6.82;;
51034;SDS011;37062;52.546;13.230;2024-02-21T03:35:35;16.77;;;7.18;;
51034;SDS011;37062;52.546;13.230;2024-02-21T03:38:03;20.10;;;7.55;;
51034;SDS011;37062;52.546;13.230;2024-02-21T03:40:32;15.35;;;7.35;;
51034;SDS011;37062;52.546;13.230;2024-02-21T03:43:00;15.02;;;6.78;;
51034;SDS011;37062;52.546;13.230;2024-02-21T03:45:28;14.65;;;6.07;;
51034;SDS011;37062;52.546;13.230;2024-02-21T03:47:57;18.10;;;5.68;;
51034;SDS011;37062;52.546;13.230;2024-02-21T03:50:27;16.23;;;6.30;;
51034;SDS011;37062;52.546;13.230;2024-02-21T03:52:56;18.00;;;7.25;;
51034;SDS011;37062;52.546;13.230;2024-02-21T03:55:24;23.85;;;8.15;;
51034;SDS011;37062;52.546;13.230;2024-02-21T03:57:53;21.50;;;8.57;;
51034;SDS011;37062;52.546;13.230;2024-02-21T04:00:21;16.42;;;7.60;;
51034;SDS011;37062;52.546;13.230;2024-02-21T04:02:51;15.68;;;7.22;;
51034;SDS011;37062;52.546;13.230;2024-02-21T04:05:19;18.10;;;7.10;;
51034;SDS011;37062;52.546;13.230;2024-02-21T04:07:49;14.32;;;6.13;;
51034;SDS011;37062;52.546;13.230;2024-02-21T04:10:17;13.60;;;6.30;;
51034;SDS011;37062;52.546;13.230;2024-02-21T04:12:46;15.38;;;6.10;;
51034;SDS011;37062;52.546;13.230;2024-02-21T04:15:17;12.32;;;5.18;;
51034;SDS011;37062;52.546;13.230;2024-02-21T04:17:45;14.98;;;6.03;;
51034;SDS011;37062;52.546;13.230;2024-02-21T04:20:15;20.83;;;9.07;;
51034;SDS011;37062;52.546;13.230;2024-02-21T04:22:43;18.17;;;7.03;;
51034;SDS011;37062;52.546;13.230;2024-02-21T04:25:13;18.60;;;6.97;;
51034;SDS011;37062;52.546;13.230;2024-02-21T04:27:42;13.45;;;5.55;;
51034;SDS011;37062;52.546;13.230;2024-02-21T04:30:10;16.58;;;7.28;;
51034;SDS011;37062;52.546;13.230;2024-02-21T04:32:39;18.20;;;7.05;;
51034;SDS011;37062;52.546;13.230;2024-02-21T04:35:08;17.92;;;7.60;;
51034;SDS011;37062;52.546;13.230;2024-02-21T04:37:36;19.15;;;8.63;;
51034;SDS011;37062;52.546;13.230;2024-02-21T04:40:05;18.17;;;7.30;;
51034;SDS011;37062;52.546;13.230;2024-02-21T04:42:36;17.05;;;7.70;;
51034;SDS011;37062;52.546;13.230;2024-02-21T04:45:06;14.10;;;6.43;;
51034;SDS011;37062;52.546;13.230;2024-02-21T04:47:35;16.00;;;6.60;;
51034;SDS011;37062;52.546;13.230;2024-02-21T04:50:03;18.40;;;7.90;;
51034;SDS011;37062;52.546;13.230;2024-02-21T04:52:32;21.08;;;6.80;;
51034;SDS011;37062;52.546;13.230;2024-02-21T04:55:00;13.98;;;6.60;;
51034;SDS011;37062;52.546;13.230;2024-02-21T04:57:29;13.18;;;6.20;;
51034;SDS011;37062;52.546;13.230;2024-02-21T04:59:58;16.92;;;7.25;;
51034;SDS011;37062;52.546;13.230;2024-02-21T05:02:26;18.15;;;6.60;;
51034;SDS011;37062;52.546;13.230;2024-02-21T05:04:55;12.57;;;6.07;;
51034;SDS011;37062;52.546;13.230;2024-02-21T05:07:23;18.05;;;7.60;;
51034;SDS011;37062;52.546;13.230;2024-02-21T05:09:52;19.90;;;7.95;;
51034;SDS011;37062;52.546;13.230;2024-02-21T05:12:20;12.10;;;5.72;;
51034;SDS011;37062;52.546;13.230;2024-02-21T05:14:48;19.83;;;6.70;;
51034;SDS011;37062;52.546;13.230;2024-02-21T05:17:18;14.70;;;6.70;;
51034;SDS011;37062;52.546;13.230;2024-02-21T05:19:46;13.90;;;5.93;;
51034;SDS011;37062;52.546;13.230;2024-02-21T05:22:14;18.15;;;6.18;;
51034;SDS011;37062;52.546;13.230;2024-02-21T05:24:42;16.05;;;6.97;;
51034;SDS011;37062;52.546;13.230;2024-02-21T05:27:11;17.02;;;7.45;;
51034;SDS011;37062;52.546;13.230;2024-02-21T05:29:39;19.02;;;7.30;;
51034;SDS011;37062;52.546;13.230;2024-02-21T05:32:07;14.40;;;7.65;;
51034;SDS011;37062;52.546;13.230;2024-02-21T05:34:37;17.33;;;7.03;;
51034;SDS011;37062;52.546;13.230;2024-02-21T05:37:06;17.50;;;7.63;;
51034;SDS011;37062;52.546;13.230;2024-02-21T05:39:34;18.83;;;8.27;;
51034;SDS011;37062;52.546;13.230;2024-02-21T05:42:02;17.45;;;8.52;;
51034;SDS011;37062;52.546;13.230;2024-02-21T05:44:30;19.48;;;8.80;;
51034;SDS011;37062;52.546;13.230;2024-02-21T05:46:59;17.45;;;8.68;;
51034;SDS011;37062;52.546;13.230;2024-02-21T05:49:27;16.48;;;7.63;;
51034;SDS011;37062;52.546;13.230;2024-02-21T05:51:57;19.55;;;8.40;;
51034;SDS011;37062;52.546;13.230;2024-02-21T05:54:25;18.83;;;8.05;;
51034;SDS011;37062;52.546;13.230;2024-02-21T05:56:53;12.82;;;6.47;;
51034;SDS011;37062;52.546;13.230;2024-02-21T05:59:21;16.70;;;7.38;;
51034;SDS011;37062;52.546;13.230;2024-02-21T06:01:54;17.17;;;7.70;;
51034;SDS011;37062;52.546;13.230;2024-02-21T06:04:24;23.30;;;10.55;;
51034;SDS011;37062;52.546;13.230;2024-02-21T06:06:52;17.75;;;7.78;;
51034;SDS011;37062;52.546;13.230;2024-02-21T06:09:22;21.48;;;9.85;;
51034;SDS011;37062;52.546;13.230;2024-02-21T06:11:50;15.75;;;7.40;;
51034;SDS011;37062;52.546;13.230;2024-02-21T06:14:19;18.25;;;7.97;;
51034;SDS011;37062;52.546;13.230;2024-02-21T06:16:47;19.35;;;8.85;;
51034;SDS011;37062;52.546;13.230;2024-02-21T06:19:16;21.70;;;10.40;;
51034;SDS011;37062;52.546;13.230;2024-02-21T06:21:45;22.30;;;10.43;;
51034;SDS011;37062;52.546;13.230;2024-02-21T06:24:13;17.85;;;9.02;;
51034;SDS011;37062;52.546;13.230;2024-02-21T06:26:43;24.10;;;9.43;;
51034;SDS011;37062;52.546;13.230;2024-02-21T06:29:11;15.32;;;8.32;;
51034;SDS011;37062;52.546;13.230;2024-02-21T06:31:40;23.13;;;9.70;;
51034;SDS011;37062;52.546;13.230;2024-02-21T06:34:08;19.55;;;8.45;;
51034;SDS011;37062;52.546;13.230;2024-02-21T06:36:37;22.42;;;10.70;;
51034;SDS011;37062;52.546;13.230;2024-02-21T06:39:05;19.50;;;9.73;;
51034;SDS011;37062;52.546;13.230;2024-02-21T06:41:34;20.48;;;9.05;;
51034;SDS011;37062;52.546;13.230;2024-02-21T06:44:04;22.20;;;10.60;;
51034;SDS011;37062;52.546;13.230;2024-02-21T06:46:33;18.90;;;10.00;;
51034;SDS011;37062;52.546;13.230;2024-02-21T06:49:01;22.73;;;10.32;;
51034;SDS011;37062;52.546;13.230;2024-02-21T06:51:30;20.13;;;10.50;;
51034;SDS011;37062;52.546;13.230;2024-02-21T06:53:58;23.60;;;12.20;;
51034;SDS011;37062;52.546;13.230;2024-02-21T06:56:26;21.88;;;10.73;;
51034;SDS011;37062;52.546;13.230;2024-02-21T06:58:55;24.10;;;10.70;;
51034;SDS011;37062;52.546;13.230;2024-02-21T07:01:25;26.92;;;12.05;;
51034;SDS011;37062;52.546;13.230;2024-02-21T07:03:54;17.15;;;9.77;;
51034;SDS011;37062;52.546;13.230;2024-02-21T07:06:22;20.08;;;9.20;;
51034;SDS011;37062;52.546;13.230;2024-02-21T07:08:51;18.77;;;10.05;;
51034;SDS011;37062;52.546;13.230;2024-02-21T07:11:19;21.77;;;10.27;;
51034;SDS011;37062;52.546;13.230;2024-02-21T07:13:48;23.23;;;11.15;;
51034;SDS011;37062;52.546;13.230;2024-02-21T07:16:16;17.08;;;9.60;;
51034;SDS011;37062;52.546;13.230;2024-02-21T07:18:45;20.27;;;9.57;;
51034;SDS011;37062;52.546;13.230;2024-02-21T07:21:14;23.42;;;12.52;;
51034;SDS011;37062;52.546;13.230;2024-02-21T07:23:42;20.80;;;11.80;;
51034;SDS011;37062;52.546;13.230;2024-02-21T07:26:10;17.25;;;9.90;;
51034;SDS011;37062;52.546;13.230;2024-02-21T07:28:39;22.52;;;10.25;;
51034;SDS011;37062;52.546;13.230;2024-02-21T07:31:07;16.63;;;9.95;;
51034;SDS011;37062;52.546;13.230;2024-02-21T07:33:35;16.65;;;8.20;;
51034;SDS011;37062;52.546;13.230;2024-02-21T07:36:07;18.27;;;8.77;;
51034;SDS011;37062;52.546;13.230;2024-02-21T07:38:35;17.52;;;9.02;;
51034;SDS011;37062;52.546;13.230;2024-02-21T07:41:04;21.30;;;8.73;;
51034;SDS011;37062;52.546;13.230;2024-02-21T07:43:32;15.55;;;8.23;;
51034;SDS011;37062;52.546;13.230;2024-02-21T07:46:01;19.23;;;9.38;;
51034;SDS011;37062;52.546;13.230;2024-02-21T07:48:29;15.57;;;8.57;;
51034;SDS011;37062;52.546;13.230;2024-02-21T07:51:01;18.40;;;8.70;;
51034;SDS011;37062;52.546;13.230;2024-02-21T07:53:30;18.42;;;8.00;;
51034;SDS011;37062;52.546;13.230;2024-02-21T07:55:59;16.35;;;7.80;;
51034;SDS011;37062;52.546;13.230;2024-02-21T07:58:28;18.98;;;8.95;;
51034;SDS011;37062;52.546;13.230;2024-02-21T08:00:56;17.70;;;10.00;;
51034;SDS011;37062;52.546;13.230;2024-02-21T08:03:25;17.55;;;8.27;;
51034;SDS011;37062;52.546;13.230;2024-02-21T08:05:53;18.48;;;10.50;;
51034;SDS011;37062;52.546;13.230;2024-02-21T08:08:21;19.40;;;9.35;;
51034;SDS011;37062;52.546;13.230;2024-02-21T08:10:52;19.30;;;9.27;;
51034;SDS011;37062;52.546;13.230;2024-02-21T08:13:22;15.00;;;7.35;;
51034;SDS011;37062;52.546;13.230;2024-02-21T08:15:50;17.88;;;9.68;;
51034;SDS011;37062;52.546;13.230;2024-02-21T08:18:18;14.45;;;7.72;;
51034;SDS011;37062;52.546;13.230;2024-02-21T08:20:46;15.13;;;8.02;;
51034;SDS011;37062;52.546;13.230;2024-02-21T08:23:15;14.00;;;7.80;;
51034;SDS011;37062;52.546;13.230;2024-02-21T08:25:44;14.07;;;7.30;;
51034;SDS011;37062;52.546;13.230;2024-02-21T08:28:13;17.27;;;7.88;;
51034;SDS011;37062;52.546;13.230;2024-02-21T08:30:42;22.13;;;9.93;;
51034;SDS011;37062;52.546;13.230;2024-02-21T08:33:14;23.25;;;13.18;;
51034;SDS011;37062;52.546;13.230;2024-02-21T08:35:44;20.55;;;10.88;;
51034;SDS011;37062;52.546;13.230;2024-02-21T08:38:12;25.75;;;12.65;;
51034;SDS011;37062;52.546;13.230;2024-02-21T08:40:40;18.85;;;9.05;;
51034;SDS011;37062;52.546;13.230;2024-02-21T08:43:09;17.73;;;9.05;;
51034;SDS011;37062;52.546;13.230;2024-02-21T08:45:38;21.88;;;9.98;;
51034;SDS011;37062;52.546;13.230;2024-02-21T08:48:07;16.13;;;8.65;;
51034;SDS011;37062;52.546;13.230;2024-02-21T08:50:35;16.75;;;8.68;;
51034;SDS011;37062;52.546;13.230;2024-02-21T08:53:05;17.40;;;7.93;;
51034;SDS011;37062;52.546;13.230;2024-02-21T08:55:33;17.60;;;8.75;;
51034;SDS011;37062;52.546;13.230;2024-02-21T08:58:02;20.90;;;11.48;;
51034;SDS011;37062;52.546;13.230;2024-02-21T09:00:31;14.82;;;8.40;;
51034;SDS011;37062;52.546;13.230;2024-02-21T09:03:01;15.13;;;8.15;;
51034;SDS011;37062;52.546;13.230;2024-02-21T09:05:29;17.23;;;8.07;;
51034;SDS011;37062;52.546;13.230;2024-02-21T09:07:57;17.40;;;9.75;;
51034;SDS011;37062;52.546;13.230;2024-02-21T09:10:26;17.48;;;8.10;;
51034;SDS011;37062;52.546;13.230;2024-02-21T09:12:54;14.50;;;8.25;;
51034;SDS011;37062;52.546;13.230;2024-02-21T09:15:22;13.50;;;9.13;;
51034;SDS011;37062;52.546;13.230;2024-02-21T09:17:51;14.65;;;8.40;;
51034;SDS011;37062;52.546;13.230;2024-02-21T09:20:20;22.25;;;10.02;;
51034;SDS011;37062;52.546;13.230;2024-02-21T09:22:49;18.58;;;9.02;;
51034;SDS011;37062;52.546;13.230;2024-02-21T09:25:18;15.90;;;9.57;;
51034;SDS011;37062;52.546;13.230;2024-02-21T09:27:46;14.70;;;9.55;;
51034;SDS011;37062;52.546;13.230;2024-02-21T09:30:15;19.95;;;9.85;;
51034;SDS011;37062;52.546;13.230;2024-02-21T09:32:43;24.52;;;13.40;;
51034;SDS011;37062;52.546;13.230;2024-02-21T09:35:11;18.70;;;9.50;;
51034;SDS011;37062;52.546;13.230;2024-02-21T09:37:41;15.73;;;10.05;;
51034;SDS011;37062;52.546;13.230;2024-02-21T09:40:10;19.45;;;10.45;;
51034;SDS011;37062;52.546;13.230;2024-02-21T09:42:39;15.55;;;8.95;;
51034;SDS011;37062;52.546;13.230;2024-02-21T09:45:11;17.30;;;9.30;;
51034;SDS011;37062;52.546;13.230;2024-02-21T09:47:50;18.25;;;9.35;;
51034;SDS011;37062;52.546;13.230;2024-02-21T09:50:25;19.00;;;9.10;;
51034;SDS011;37062;52.546;13.230;2024-02-21T09:52:56;13.07;;;8.20;;
51034;SDS011;37062;52.546;13.230;2024-02-21T09:55:26;14.52;;;8.32;;
51034;SDS011;37062;52.546;13.230;2024-02-21T09:57:58;16.02;;;8.65;;
51034;SDS011;37062;52.546;13.230;2024-02-21T10:00:28;18.63;;;8.93;;
51034;SDS011;37062;52.546;13.230;2024-02-21T10:02:56;16.23;;;8.55;;
51034;SDS011;37062;52.546;13.230;2024-02-21T10:05:26;17.63;;;10.38;;
51034;SDS011;37062;52.546;13.230;2024-02-21T10:07:56;18.52;;;9.15;;
51034;SDS011;37062;52.546;13.230;2024-02-21T10:10:24;14.55;;;8.43;;
51034;SDS011;37062;52.546;13.230;2024-02-21T10:12:54;14.02;;;8.98;;
51034;SDS011;37062;52.546;13.230;2024-02-21T10:15:22;15.15;;;8.27;;
51034;SDS011;37062;52.546;13.230;2024-02-21T10:17:58;18.25;;;9.57;;
51034;SDS011;37062;52.546;13.230;2024-02-21T10:20:27;17.58;;;8.98;;
51034;SDS011;37062;52.546;13.230;2024-02-21T10:23:03;13.30;;;8.77;;
51034;SDS011;37062;52.546;13.230;2024-02-21T10:25:36;18.15;;;10.27;;
51034;SDS011;37062;52.546;13.230;2024-02-21T10:28:08;14.13;;;8.38;;
51034;SDS011;37062;52.546;13.230;2024-02-21T10:30:48;12.15;;;7.85;;
51034;SDS011;37062;52.546;13.230;2024-02-21T10:33:17;14.00;;;8.52;;
51034;SDS011;37062;52.546;13.230;2024-02-21T10:35:47;13.50;;;8.25;;
51034;SDS011;37062;52.546;13.230;2024-02-21T10:38:18;17.38;;;11.45;;
51034;SDS011;37062;52.546;13.230;2024-02-21T10:40:46;14.50;;;8.93;;
51034;SDS011;37062;52.546;13.230;2024-02-21T10:43:16;15.85;;;9.18;;
51034;SDS011;37062;52.546;13.230;2024-02-21T10:45:45;17.80;;;8.35;;
51034;SDS011;37062;52.546;13.230;2024-02-21T10:48:18;15.35;;;8.20;;
51034;SDS011;37062;52.546;13.230;2024-02-21T10:50:57;14.18;;;7.60;;
51034;SDS011;37062;52.546;13.230;2024-02-21T10:53:33;8.70;;;6.38;;
51034;SDS011;37062;52.546;13.230;2024-02-21T10:56:11;20.98;;;11.10;;
51034;SDS011;37062;52.546;13.230;2024-02-21T10:58:46;9.80;;;6.55;;
51034;SDS011;37062;52.546;13.230;2024-02-21T11:01:15;13.77;;;7.57;;
51034;SDS011;37062;52.546;13.230;2024-02-21T11:03:46;16.13;;;10.10;;
51034;SDS011;37062;52.546;13.230;2024-02-21T11:06:16;13.75;;;7.88;;
51034;SDS011;37062;52.546;13.230;2024-02-21T11:08:48;10.13;;;6.38;;
51034;SDS011;37062;52.546;13.230;2024-02-21T11:11:29;12.18;;;7.43;;
51034;SDS011;37062;52.546;13.230;2024-02-21T11:14:06;15.13;;;8.13;;
51034;SDS011;37062;52.546;13.230;2024-02-21T11:16:36;13.02;;;6.55;;
51034;SDS011;37062;52.546;13.230;2024-02-21T11:19:07;11.05;;;6.40;;
51034;SDS011;37062;52.546;13.230;2024-02-21T11:21:36;9.63;;;6.82;;
51034;SDS011;37062;52.546;13.230;2024-02-21T11:24:07;11.75;;;7.30;;
51034;SDS011;37062;52.546;13.230;2024-02-21T11:26:36;9.75;;;5.90;;
51034;SDS011;37062;52.546;13.230;2024-02-21T11:29:05;9.98;;;5.90;;
51034;SDS011;37062;52.546;13.230;2024-02-21T11:31:39;10.70;;;5.90;;
51034;SDS011;37062;52.546;13.230;2024-02-21T11:34:09;7.50;;;5.03;;
51034;SDS011;37062;52.546;13.230;2024-02-21T11:36:46;7.07;;;5.18;;
51034;SDS011;37062;52.546;13.230;2024-02-21T11:39:23;11.63;;;5.07;;
51034;SDS011;37062;52.546;13.230;2024-02-21T11:42:02;12.82;;;6.22;;
51034;SDS011;37062;52.546;13.230;2024-02-21T11:44:32;9.70;;;6.03;;
51034;SDS011;37062;52.546;13.230;2024-02-21T11:47:00;9.60;;;5.35;;
51034;SDS011;37062;52.546;13.230;2024-02-21T11:49:30;12.15;;;5.93;;
51034;SDS011;37062;52.546;13.230;2024-02-21T11:51:59;12.13;;;5.72;;
51034;SDS011;37062;52.546;13.230;2024-02-21T11:54:32;10.60;;;5.97;;
51034;SDS011;37062;52.546;13.230;2024-02-21T11:57:00;7.75;;;4.95;;
51034;SDS011;37062;52.546;13.230;2024-02-21T11:59:32;9.05;;;5.00;;
51034;SDS011;37062;52.546;13.230;2024-02-21T12:02:01;7.93;;;4.00;;
51034;SDS011;37062;52.546;13.230;2024-02-21T12:04:30;7.95;;;5.30;;
51034;SDS011;37062;52.546;13.230;2024-02-21T12:06:59;7.75;;;4.72;;
51034;SDS011;37062;52.546;13.230;2024-02-21T12:09:31;8.88;;;5.57;;
51034;SDS011;37062;52.546;13.230;2024-02-21T12:12:03;8.35;;;5.38;;
51034;SDS011;37062;52.546;13.230;2024-02-21T12:14:32;8.13;;;5.70;;
51034;SDS011;37062;52.546;13.230;2024-02-21T12:17:02;9.68;;;5.22;;
51034;SDS011;37062;52.546;13.230;2024-02-21T12:19:32;13.93;;;7.50;;
51034;SDS011;37062;52.546;13.230;2024-02-21T12:22:01;14.10;;;7.85;;
51034;SDS011;37062;52.546;13.230;2024-02-21T12:24:34;11.73;;;7.22;;
51034;SDS011;37062;52.546;13.230;2024-02-21T12:27:02;12.65;;;6.57;;
51034;SDS011;37062;52.546;13.230;2024-02-21T12:29:32;6.80;;;4.68;;
51034;SDS011;37062;52.546;13.230;2024-02-21T12:32:00;4.78;;;3.40;;
51034;SDS011;37062;52.546;13.230;2024-02-21T12:34:30;7.50;;;4.00;;
51034;SDS011;37062;52.546;13.230;2024-02-21T12:37:18;10.95;;;5.95;;
51034;SDS011;37062;52.546;13.230;2024-02-21T12:39:49;8.55;;;4.95;;
51034;SDS011;37062;52.546;13.230;2024-02-21T12:42:17;8.30;;;4.82;;
51034;SDS011;37062;52.546;13.230;2024-02-21T12:44:45;6.10;;;4.35;;
51034;SDS011;37062;52.546;13.230;2024-02-21T12:47:14;8.00;;;4.80;;
51034;SDS011;37062;52.546;13.230;2024-02-21T12:49:42;9.07;;;5.30;;
51034;SDS011;37062;52.546;13.230;2024-02-21T12:52:12;7.97;;;3.42;;
51034;SDS011;37062;52.546;13.230;2024-02-21T12:54:40;6.97;;;3.65;;
51034;SDS011;37062;52.546;13.230;2024-02-21T12:57:10;4.55;;;3.30;;
51034;SDS011;37062;52.546;13.230;2024-02-21T12:59:39;6.40;;;3.22;;
51034;SDS011;37062;52.546;13.230;2024-02-21T13:02:07;5.80;;;3.40;;
51034;SDS011;37062;52.546;13.230;2024-02-21T13:04:36;6.45;;;3.70;;
51034;SDS011;37062;52.546;13.230;2024-02-21T13:07:07;8.82;;;4.45;;
51034;SDS011;37062;52.546;13.230;2024-02-21T13:09:35;8.85;;;4.85;;
51034;SDS011;37062;52.546;13.230;2024-02-21T13:12:04;7.80;;;5.47;;
51034;SDS011;37062;52.546;13.230;2024-02-21T13:14:35;8.00;;;5.15;;
51034;SDS011;37062;52.546;13.230;2024-02-21T13:17:05;7.97;;;4.53;;
51034;SDS011;37062;52.546;13.230;2024-02-21T13:19:34;8.63;;;4.53;;
51034;SDS011;37062;52.546;13.230;2024-02-21T13:22:02;10.88;;;5.55;;
51034;SDS011;37062;52.546;13.230;2024-02-21T13:24:31;9.27;;;5.65;;
51034;SDS011;37062;52.546;13.230;2024-02-21T13:26:59;8.93;;;4.63;;
51034;SDS011;37062;52.546;13.230;2024-02-21T13:29:28;10.43;;;5.80;;
51034;SDS011;37062;52.546;13.230;2024-02-21T13:31:57;11.43;;;6.68;;
51034;SDS011;37062;52.546;13.230;2024-02-21T13:34:26;8.35;;;4.90;;
51034;SDS011;37062;52.546;13.230;2024-02-21T13:36:55;8.32;;;4.47;;
51034;SDS011;37062;52.546;13.230;2024-02-21T13:39:23;8.20;;;4.22;;
51034;SDS011;37062;52.546;13.230;2024-02-21T13:41:51;13.93;;;6.53;;
51034;SDS011;37062;52.546;13.230;2024-02-21T13:44:20;10.35;;;4.85;;
51034;SDS011;37062;52.546;13.230;2024-02-21T13:46:48;9.10;;;3.50;;
51034;SDS011;37062;52.546;13.230;2024-02-21T13:49:18;11.20;;;6.22;;
51034;SDS011;37062;52.546;13.230;2024-02-21T13:51:46;11.25;;;6.20;;
51034;SDS011;37062;52.546;13.230;2024-02-21T13:54:15;8.50;;;5.50;;
51034;SDS011;37062;52.546;13.230;2024-02-21T13:56:45;10.80;;;5.28;;
51034;SDS011;37062;52.546;13.230;2024-02-21T13:59:13;9.68;;;5.25;;
51034;SDS011;37062;52.546;13.230;2024-02-21T14:01:43;12.65;;;5.65;;
51034;SDS011;37062;52.546;13.230;2024-02-21T14:04:12;7.45;;;4.20;;
51034;SDS011;37062;52.546;13.230;2024-02-21T14:06:41;10.00;;;5.00;;
51034;SDS011;37062;52.546;13.230;2024-02-21T14:09:10;7.75;;;5.18;;
51034;SDS011;37062;52.546;13.230;2024-02-21T14:11:39;11.60;;;6.32;;
51034;SDS011;37062;52.546;13.230;2024-02-21T14:14:08;11.23;;;5.00;;
51034;SDS011;37062;52.546;13.230;2024-02-21T14:16:37;11.77;;;4.85;;
51034;SDS011;37062;52.546;13.230;2024-02-21T14:19:05;10.70;;;5.72;;
51034;SDS011;37062;52.546;13.230;2024-02-21T14:21:35;11.63;;;6.22;;
51034;SDS011;37062;52.546;13.230;2024-02-21T14:24:05;10.50;;;5.78;;
51034;SDS011;37062;52.546;13.230;2024-02-21T14:26:33;11.88;;;5.25;;
51034;SDS011;37062;52.546;13.230;2024-02-21T14:29:02;11.60;;;5.05;;
51034;SDS011;37062;52.546;13.230;2024-02-21T14:31:31;11.95;;;5.22;;
51034;SDS011;37062;52.546;13.230;2024-02-21T14:33:59;7.95;;;4.72;;